Time,TemperatureF,DewpointF,PressureIn,WindDirection,WindDirectionDegrees,WindSpeedMPH,WindSpeedGustMPH,Humidity,HourlyPrecipIn,Conditions,Clouds,dailyrainin,SoftwareType,DateUTC
2013-02-13 00:02:00,25.0,21.0,29.89,North,0,0.0,-999.0,85,-99.99,,,-99.99,,2013-02-13 06:02:00,
2013-02-13 00:11:00,25.0,21.0,29.89,North,0,0.0,-999.0,85,-99.99,,,-99.99,,2013-02-13 06:11:00,
2013-02-13 00:21:00,25.0,21.0,29.89,North,0,0.0,-999.0,85,-99.99,,,-99.99,,2013-02-13 06:21:00,
2013-02-13 00:32:00,25.0,21.0,29.89,North,0,0.0,-999.0,85,-99.99,,,-99.99,,2013-02-13 06:32:00,
2013-02-13 00:42:00,25.0,21.0,29.89,North,0,0.0,-999.0,85,-99.99,,,-99.99,,2013-02-13 06:42:00,
2013-02-13 00:52:00,25.0,21.0,29.89,North,0,0.0,-999.0,85,-99.99,,,-99.99,,2013-02-13 06:52:00,
2013-02-13 01:02:00,25.0,21.0,29.89,North,0,0.0,-999.0,85,-99.99,,,-99.99,,2013-02-13 07:02:00,
2013-02-13 01:11:00,25.0,21.0,29.88,North,0,0.0,-999.0,85,-99.99,,,-99.99,,2013-02-13 07:11:00,
2013-02-13 01:22:00,25.0,21.0,29.88,North,0,0.0,-999.0,85,-99.99,,,-99.99,,2013-02-13 07:22:00,
2013-02-13 01:31:00,25.0,21.0,29.87,North,0,0.0,-999.0,85,-99.99,,,-99.99,,2013-02-13 07:31:00,
2013-02-13 01:42:00,25.0,21.0,29.87,North,0,0.0,-999.0,85,-99.99,,,-99.99,,2013-02-13 07:42:00,
2013-02-13 01:51:00,25.0,21.0,29.87,North,0,0.0,-999.0,85,-99.99,,,-99.99,,2013-02-13 07:51:00,
2013-02-13 02:01:00,25.0,21.0,29.87,North,0,0.0,-999.0,85,-99.99,,,-99.99,,2013-02-13 08:01:00,
2013-02-13 02:11:00,25.0,21.0,29.87,North,0,0.0,-999.0,85,-99.99,,,-99.99,,2013-02-13 08:11:00,
2013-02-13 02:21:00,25.0,21.0,29.87,North,0,0.0,-999.0,85,-99.99,,,-99.99,,2013-02-13 08:21:00,
2013-02-13 02:32:00,25.0,21.0,29.86,North,0,0.0,-999.0,85,-99.99,,,-99.99,,2013-02-13 08:32:00,
2013-02-13 02:43:00,25.0,21.0,29.86,North,0,0.0,-999.0,85,-99.99,,,-99.99,,2013-02-13 08:43:00,
2013-02-13 02:52:00,25.0,21.0,29.86,North,0,0.0,-999.0,85,-99.99,,,-99.99,,2013-02-13 08:52:00,
2013-02-13 03:01:00,25.0,21.0,29.86,North,0,0.0,-999.0,85,-99.99,,,-99.99,,2013-02-13 09:01:00,
2013-02-13 03:11:00,25.0,21.0,29.86,North,0,0.0,-999.0,85,-99.99,,,-99.99,,2013-02-13 09:11:00,
2013-02-13 03:21:00,25.0,21.0,29.86,North,0,0.0,-999.0,85,-99.99,,,-99.99,,2013-02-13 09:21:00,
2013-02-13 03:31:00,25.0,21.0,29.85,North,0,0.0,-999.0,85,-99.99,,,-99.99,,2013-02-13 09:31:00,
2013-02-13 03:42:00,25.0,21.0,29.85,North,0,0.0,-999.0,85,-99.99,,,-99.99,,2013-02-13 09:42:00,
2013-02-13 03:51:00,25.0,21.0,29.85,North,0,0.0,-999.0,85,-99.99,,,-99.99,,2013-02-13 09:51:00,
2013-02-13 04:01:00,25.0,21.0,29.85,North,0,0.0,-999.0,85,-99.99,,,-99.99,,2013-02-13 10:01:00,
2013-02-13 04:11:00,25.0,21.0,29.84,North,0,0.0,-999.0,85,-99.99,,,-99.99,,2013-02-13 10:11:00,
2013-02-13 04:21:00,25.0,21.0,29.84,North,0,0.0,-999.0,85,-99.99,,,-99.99,,2013-02-13 10:21:00,
2013-02-13 04:32:00,25.0,21.0,29.83,North,0,0.0,-999.0,85,-99.99,,,-99.99,,2013-02-13 10:32:00,
2013-02-13 04:42:00,25.0,21.0,29.83,North,0,0.0,-999.0,85,-99.99,,,-99.99,,2013-02-13 10:42:00,
2013-02-13 04:51:00,23.0,19.0,29.83,North,0,0.0,-999.0,85,-99.99,,,-99.99,,2013-02-13 10:51:00,
2013-02-13 05:01:00,23.0,19.0,29.83,North,0,0.0,-999.0,85,-99.99,,,-99.99,,2013-02-13 11:01:00,
2013-02-13 05:11:00,23.0,19.0,29.83,North,0,0.0,-999.0,85,-99.99,,,-99.99,,2013-02-13 11:11:00,
2013-02-13 05:22:00,23.0,19.0,29.83,North,0,0.0,-999.0,85,-99.99,,,-99.99,,2013-02-13 11:22:00,
2013-02-13 05:32:00,25.0,21.0,29.83,North,-999,-999.0,-999.0,85,-99.99,,,-99.99,,2013-02-13 11:32:00,
2013-02-13 05:42:00,25.0,21.0,29.83,North,-999,-999.0,-999.0,85,-99.99,,,-99.99,,2013-02-13 11:42:00,
2013-02-13 05:52:00,25.0,21.0,29.83,WSW,250,5.0,-999.0,85,-99.99,,,-99.99,,2013-02-13 11:52:00,
2013-02-13 06:02:00,25.0,21.0,29.83,WSW,250,5.0,-999.0,85,-99.99,,,-99.99,,2013-02-13 12:02:00,
2013-02-13 06:11:00,25.0,21.0,29.82,North,0,0.0,-999.0,85,-99.99,,,-99.99,,2013-02-13 12:11:00,
2013-02-13 06:22:00,25.0,21.0,29.82,North,0,0.0,-999.0,85,-99.99,,,-99.99,,2013-02-13 12:22:00,
2013-02-13 06:32:00,25.0,21.0,29.82,North,0,0.0,-999.0,85,-99.99,,,-99.99,,2013-02-13 12:32:00,
2013-02-13 06:42:00,25.0,21.0,29.82,North,0,0.0,-999.0,85,-99.99,,,-99.99,,2013-02-13 12:42:00,
2013-02-13 06:52:00,25.0,21.0,29.81,North,0,0.0,-999.0,85,-99.99,,,-99.99,,2013-02-13 12:52:00,
2013-02-13 07:02:00,25.0,21.0,29.81,North,0,0.0,-999.0,85,-99.99,,,-99.99,,2013-02-13 13:02:00,
2013-02-13 07:11:00,25.0,21.0,29.80,North,0,0.0,-999.0,85,-99.99,,,-99.99,,2013-02-13 13:11:00,
2013-02-13 07:21:00,25.0,21.0,29.80,North,0,0.0,-999.0,85,-99.99,,,-99.99,,2013-02-13 13:21:00,
2013-02-13 07:32:00,25.0,21.0,29.81,North,0,0.0,-999.0,85,-99.99,,,-99.99,,2013-02-13 13:32:00,
2013-02-13 07:42:00,25.0,21.0,29.81,North,0,0.0,-999.0,85,-99.99,,,-99.99,,2013-02-13 13:42:00,
2013-02-13 07:51:00,25.0,21.0,29.81,North,0,0.0,-999.0,85,-99.99,,,-99.99,,2013-02-13 13:51:00,
2013-02-13 08:01:00,25.0,21.0,29.81,North,0,0.0,-999.0,85,-99.99,,,-99.99,,2013-02-13 14:01:00,
2013-02-13 08:11:00,25.0,21.0,29.80,North,0,0.0,-999.0,85,-99.99,,,-99.99,,2013-02-13 14:11:00,
2013-02-13 08:21:00,25.0,21.0,29.80,North,0,0.0,-999.0,85,-99.99,,,-99.99,,2013-02-13 14:21:00,
2013-02-13 08:31:00,25.0,23.0,29.79,North,0,0.0,-999.0,92,-99.99,,,-99.99,,2013-02-13 14:31:00,
2013-02-13 08:42:00,25.0,23.0,29.79,North,0,0.0,-999.0,92,-99.99,,,-99.99,,2013-02-13 14:42:00,
2013-02-13 08:52:00,28.0,25.0,29.80,North,0,0.0,-999.0,86,-99.99,,,-99.99,,2013-02-13 14:52:00,
2013-02-13 09:01:00,28.0,25.0,29.80,North,0,0.0,-999.0,86,-99.99,,,-99.99,,2013-02-13 15:01:00,
2013-02-13 09:11:00,30.0,27.0,29.80,North,0,0.0,-999.0,86,-99.99,,,-99.99,,2013-02-13 15:11:00,
2013-02-13 09:21:00,30.0,27.0,29.80,North,0,0.0,-999.0,86,-99.99,,,-99.99,,2013-02-13 15:21:00,
2013-02-13 09:32:00,32.0,27.0,29.79,North,0,0.0,-999.0,80,-99.99,,,-99.99,,2013-02-13 15:32:00,
2013-02-13 09:42:00,32.0,27.0,29.79,North,0,0.0,-999.0,80,-99.99,,,-99.99,,2013-02-13 15:42:00,
2013-02-13 09:51:00,34.0,27.0,29.79,SSW,210,6.0,-999.0,74,-99.99,,,-99.99,,2013-02-13 15:51:00,
2013-02-13 10:01:00,34.0,27.0,29.79,SSW,210,6.0,-999.0,74,-99.99,,,-99.99,,2013-02-13 16:01:00,
2013-02-13 10:11:00,36.0,28.0,29.78,SW,220,8.0,-999.0,74,-99.99,,,-99.99,,2013-02-13 16:11:00,
2013-02-13 10:21:00,36.0,28.0,29.78,SW,220,8.0,-999.0,74,-99.99,,,-99.99,,2013-02-13 16:21:00,
2013-02-13 10:31:00,36.0,28.0,29.78,SW,220,13.0,-999.0,74,-99.99,,,-99.99,,2013-02-13 16:31:00,
2013-02-13 10:42:00,36.0,28.0,29.78,SW,220,13.0,-999.0,74,-99.99,,,-99.99,,2013-02-13 16:42:00,
2013-02-13 10:51:00,37.0,28.0,29.77,SW,220,12.0,-999.0,69,-99.99,,,-99.99,,2013-02-13 16:51:00,
2013-02-13 11:01:00,37.0,28.0,29.77,SW,220,12.0,-999.0,69,-99.99,,,-99.99,,2013-02-13 17:01:00,
2013-02-13 11:11:00,37.0,28.0,29.77,SW,220,12.0,16.0,69,-99.99,,,-99.99,,2013-02-13 17:11:00,
2013-02-13 11:21:00,37.0,28.0,29.77,SW,220,12.0,16.0,69,-99.99,,,-99.99,,2013-02-13 17:21:00,
2013-02-13 11:31:00,37.0,28.0,29.77,SW,230,12.0,16.0,69,-99.99,,,-99.99,,2013-02-13 17:31:00,
2013-02-13 11:42:00,37.0,28.0,29.77,SW,230,12.0,16.0,69,-99.99,,,-99.99,,2013-02-13 17:42:00,
2013-02-13 11:52:00,37.0,30.0,29.77,North,-999,-999.0,-999.0,74,-99.99,,,-99.99,,2013-02-13 17:52:00,
2013-02-13 12:01:00,37.0,30.0,29.77,North,-999,-999.0,-999.0,74,-99.99,,,-99.99,,2013-02-13 18:01:00,
2013-02-13 12:11:00,37.0,30.0,29.77,North,-999,-999.0,-999.0,74,-99.99,,,-99.99,,2013-02-13 18:11:00,
2013-02-13 12:23:00,37.0,30.0,29.77,North,-999,-999.0,-999.0,74,-99.99,,,-99.99,,2013-02-13 18:23:00,
2013-02-13 12:32:00,39.0,30.0,29.75,SW,230,9.0,-999.0,69,-99.99,,,-99.99,,2013-02-13 18:32:00,
2013-02-13 12:42:00,39.0,30.0,29.75,SW,230,9.0,-999.0,69,-99.99,,,-99.99,,2013-02-13 18:42:00,
2013-02-13 12:52:00,39.0,30.0,29.74,WSW,250,9.0,-999.0,69,-99.99,,,-99.99,,2013-02-13 18:52:00,
2013-02-13 13:01:00,39.0,30.0,29.74,WSW,250,9.0,-999.0,69,-99.99,,,-99.99,,2013-02-13 19:01:00,
2013-02-13 13:11:00,41.0,30.0,29.73,SW,230,13.0,-999.0,65,-99.99,,,-99.99,,2013-02-13 19:11:00,
2013-02-13 13:21:00,41.0,30.0,29.73,SW,230,13.0,-999.0,65,-99.99,,,-99.99,,2013-02-13 19:21:00,
2013-02-13 13:31:00,39.0,30.0,29.72,SW,230,12.0,16.0,69,-99.99,,,-99.99,,2013-02-13 19:31:00,
2013-02-13 13:42:00,39.0,30.0,29.72,SW,230,12.0,16.0,69,-99.99,,,-99.99,,2013-02-13 19:42:00,
2013-02-13 13:51:00,39.0,30.0,29.71,SW,230,10.0,-999.0,69,-99.99,,,-99.99,,2013-02-13 19:51:00,
2013-02-13 14:02:00,39.0,30.0,29.71,SW,230,10.0,-999.0,69,-99.99,,,-99.99,,2013-02-13 20:02:00,
2013-02-13 14:11:00,41.0,32.0,29.70,SW,220,10.0,17.0,70,-99.99,,,-99.99,,2013-02-13 20:11:00,
2013-02-13 14:21:00,41.0,32.0,29.70,SW,220,10.0,17.0,70,-99.99,,,-99.99,,2013-02-13 20:21:00,
2013-02-13 14:31:00,43.0,34.0,29.70,WSW,240,12.0,-999.0,70,-99.99,,,-99.99,,2013-02-13 20:31:00,
2013-02-13 14:42:00,43.0,34.0,29.70,WSW,240,12.0,-999.0,70,-99.99,,,-99.99,,2013-02-13 20:42:00,
2013-02-13 14:52:00,43.0,32.0,29.69,SW,230,15.0,-999.0,65,-99.99,,,-99.99,,2013-02-13 20:52:00,
2013-02-13 15:01:00,43.0,32.0,29.69,SW,230,15.0,-999.0,65,-99.99,,,-99.99,,2013-02-13 21:01:00,
2013-02-13 15:11:00,43.0,32.0,29.68,SW,230,10.0,15.0,65,-99.99,,,-99.99,,2013-02-13 21:11:00,
2013-02-13 15:21:00,43.0,32.0,29.68,SW,230,10.0,15.0,65,-99.99,,,-99.99,,2013-02-13 21:21:00,
2013-02-13 15:31:00,43.0,32.0,29.68,WSW,240,8.0,-999.0,65,-99.99,,,-99.99,,2013-02-13 21:31:00,
2013-02-13 15:42:00,43.0,32.0,29.68,WSW,240,8.0,-999.0,65,-99.99,,,-99.99,,2013-02-13 21:42:00,
2013-02-13 15:52:00,41.0,32.0,29.68,WSW,250,8.0,-999.0,70,-99.99,,,-99.99,,2013-02-13 21:52:00,
2013-02-13 16:02:00,41.0,32.0,29.68,WSW,250,8.0,-999.0,70,-99.99,,,-99.99,,2013-02-13 22:02:00,
2013-02-13 16:11:00,41.0,32.0,29.68,WSW,250,8.0,-999.0,70,-99.99,,,-99.99,,2013-02-13 22:11:00,
2013-02-13 16:21:00,41.0,32.0,29.68,WSW,250,8.0,-999.0,70,-99.99,,,-99.99,,2013-02-13 22:21:00,
2013-02-13 16:31:00,43.0,34.0,29.68,SW,230,8.0,-999.0,70,-99.99,,,-99.99,,2013-02-13 22:31:00,
2013-02-13 16:42:00,43.0,34.0,29.68,SW,230,8.0,-999.0,70,-99.99,,,-99.99,,2013-02-13 22:42:00,
2013-02-13 16:52:00,43.0,32.0,29.68,West,260,13.0,18.0,65,-99.99,,,-99.99,,2013-02-13 22:52:00,
2013-02-13 17:01:00,43.0,32.0,29.68,West,260,13.0,18.0,65,-99.99,,,-99.99,,2013-02-13 23:01:00,
2013-02-13 17:11:00,41.0,32.0,29.68,West,260,13.0,-999.0,70,-99.99,,,-99.99,,2013-02-13 23:11:00,
2013-02-13 17:21:00,41.0,32.0,29.68,West,260,13.0,-999.0,70,-99.99,,,-99.99,,2013-02-13 23:21:00,
2013-02-13 17:32:00,41.0,34.0,29.67,West,260,12.0,16.0,75,-99.99,,,-99.99,,2013-02-13 23:32:00,
2013-02-13 17:42:00,41.0,34.0,29.67,West,260,12.0,16.0,75,-99.99,,,-99.99,,2013-02-13 23:42:00,
2013-02-13 17:52:00,39.0,32.0,29.67,West,270,8.0,-999.0,75,-99.99,,,-99.99,,2013-02-13 23:52:00,
2013-02-13 18:02:00,39.0,32.0,29.67,West,270,8.0,-999.0,75,-99.99,,,-99.99,,2013-02-14 00:02:00,
2013-02-13 18:11:00,39.0,32.0,29.67,West,270,8.0,-999.0,75,-99.99,,,-99.99,,2013-02-14 00:11:00,
2013-02-13 18:21:00,39.0,32.0,29.67,West,270,8.0,-999.0,75,-99.99,,,-99.99,,2013-02-14 00:21:00,
2013-02-13 18:32:00,39.0,32.0,29.68,WSW,250,10.0,-999.0,75,-99.99,,,-99.99,,2013-02-14 00:32:00,
2013-02-13 18:42:00,39.0,32.0,29.68,WSW,250,10.0,-999.0,75,-99.99,,,-99.99,,2013-02-14 00:42:00,
2013-02-13 18:52:00,39.0,32.0,29.69,WSW,250,9.0,-999.0,75,-99.99,,,-99.99,,2013-02-14 00:52:00,
2013-02-13 19:01:00,39.0,32.0,29.69,WSW,250,9.0,-999.0,75,-99.99,,,-99.99,,2013-02-14 01:01:00,
2013-02-13 19:11:00,39.0,32.0,29.69,WSW,250,9.0,-999.0,75,-99.99,,,-99.99,,2013-02-14 01:11:00,
2013-02-13 19:21:00,39.0,32.0,29.69,WSW,250,9.0,-999.0,75,-99.99,,,-99.99,,2013-02-14 01:21:00,
2013-02-13 19:31:00,37.0,32.0,29.70,West,270,8.0,-999.0,80,-99.99,,,-99.99,,2013-02-14 01:31:00,
2013-02-13 19:42:00,37.0,32.0,29.70,West,270,8.0,-999.0,80,-99.99,,,-99.99,,2013-02-14 01:42:00,
2013-02-13 19:52:00,36.0,30.0,29.70,West,280,7.0,-999.0,80,-99.99,,,-99.99,,2013-02-14 01:52:00,
2013-02-13 20:01:00,36.0,30.0,29.70,West,280,7.0,-999.0,80,-99.99,,,-99.99,,2013-02-14 02:01:00,
2013-02-13 20:11:00,36.0,30.0,29.70,West,280,7.0,-999.0,80,-99.99,,,-99.99,,2013-02-14 02:11:00,
2013-02-13 20:21:00,36.0,30.0,29.70,West,280,7.0,-999.0,80,-99.99,,,-99.99,,2013-02-14 02:21:00,
2013-02-13 20:31:00,36.0,32.0,29.71,West,280,7.0,-999.0,86,-99.99,,,-99.99,,2013-02-14 02:31:00,
2013-02-13 20:42:00,36.0,32.0,29.71,West,280,7.0,-999.0,86,-99.99,,,-99.99,,2013-02-14 02:42:00,
2013-02-13 20:52:00,36.0,32.0,29.71,West,280,7.0,-999.0,86,-99.99,,,-99.99,,2013-02-14 02:52:00,
2013-02-13 21:02:00,36.0,32.0,29.71,West,280,6.0,-999.0,86,-99.99,,,-99.99,,2013-02-14 03:02:00,
2013-02-13 21:11:00,37.0,32.0,29.72,WNW,290,10.0,-999.0,80,-99.99,,,-99.99,,2013-02-14 03:11:00,
2013-02-13 21:22:00,37.0,32.0,29.72,WNW,290,10.0,-999.0,80,-99.99,,,-99.99,,2013-02-14 03:22:00,
2013-02-13 21:31:00,36.0,32.0,29.73,WNW,300,12.0,16.0,86,-99.99,,,-99.99,,2013-02-14 03:31:00,
2013-02-13 21:42:00,36.0,32.0,29.73,WNW,300,12.0,16.0,86,-99.99,,,-99.99,,2013-02-14 03:42:00,
2013-02-13 21:51:00,36.0,32.0,29.73,WNW,290,8.0,-999.0,86,-99.99,,,-99.99,,2013-02-14 03:51:00,
2013-02-13 22:01:00,36.0,32.0,29.73,WNW,290,8.0,-999.0,86,-99.99,,,-99.99,,2013-02-14 04:01:00,
2013-02-13 22:12:00,36.0,30.0,29.73,West,270,5.0,-999.0,80,-99.99,,,-99.99,,2013-02-14 04:12:00,
2013-02-13 22:21:00,36.0,30.0,29.73,West,270,5.0,-999.0,80,-99.99,,,-99.99,,2013-02-14 04:21:00,
2013-02-13 22:31:00,36.0,30.0,29.74,West,280,8.0,-999.0,80,-99.99,,,-99.99,,2013-02-14 04:31:00,
2013-02-13 22:41:00,36.0,30.0,29.74,West,280,8.0,-999.0,80,-99.99,,,-99.99,,2013-02-14 04:41:00,
2013-02-13 22:51:00,34.0,30.0,29.74,WNW,290,6.0,-999.0,86,-99.99,,,-99.99,,2013-02-14 04:51:00,
2013-02-13 23:02:00,34.0,30.0,29.74,WNW,290,6.0,-999.0,86,-99.99,,,-99.99,,2013-02-14 05:02:00,
2013-02-13 23:11:00,34.0,30.0,29.74,WNW,290,9.0,-999.0,86,-99.99,,,-99.99,,2013-02-14 05:11:00,
2013-02-13 23:21:00,34.0,30.0,29.74,WNW,290,9.0,-999.0,86,-99.99,,,-99.99,,2013-02-14 05:21:00,
2013-02-13 23:31:00,36.0,30.0,29.75,WNW,290,12.0,16.0,80,-99.99,,,-99.99,,2013-02-14 05:31:00,
2013-02-13 23:42:00,36.0,30.0,29.75,WNW,290,12.0,16.0,80,-99.99,,,-99.99,,2013-02-14 05:42:00,
2013-02-13 23:52:00,36.0,30.0,29.75,WNW,300,8.0,-999.0,80,-99.99,,,-99.99,,2013-02-14 05:52:00,